Time;durP1;ratioP1;P1;durP2;ratioP2;P2;SDS_P1;SDS_P2;PMS_P1;PMS_P2;Temp;Humidity;BMP_temperature;BMP_pressure;BME280_temperature;BME280_humidity;BME280_pressure;Samples;Min_cycle;Max_cycle;Signal;HPM_P1;HPM_P2
2021/08/14 00:00:01;;;;;;;19.35;13.75;;;16.60;86.20;;;;;;5112389;28;20031;-77
2021/08/14 00:02:27;;;;;;;18.27;13.25;;;16.60;86.20;;;;;;5109609;28;20518;-76
2021/08/14 00:04:53;;;;;;;20.00;13.07;;;16.60;86.30;;;;;;5091887;28;20048;-77
2021/08/14 00:07:19;;;;;;;21.17;13.45;;;16.50;86.30;;;;;;5093308;28;20097;-80
2021/08/14 00:09:45;;;;;;;16.27;12.32;;;16.50;86.50;;;;;;5089791;28;20020;-77
2021/08/14 00:12:10;;;;;;;19.67;12.45;;;16.40;86.60;;;;;;5111083;28;20483;-78
2021/08/14 00:14:36;;;;;;;19.80;12.75;;;16.40;86.80;;;;;;5091750;28;20043;-78
2021/08/14 00:17:02;;;;;;;20.40;12.98;;;16.30;86.90;;;;;;5094412;28;20035;-78
2021/08/14 00:19:29;;;;;;;22.75;12.80;;;16.20;87.20;;;;;;5093493;28;20020;-77
2021/08/14 00:21:55;;;;;;;21.63;13.55;;;16.20;87.60;;;;;;5109375;28;20088;-76
2021/08/14 00:24:21;;;;;;;19.48;12.88;;;16.20;87.90;;;;;;5091747;28;20032;-77
2021/08/14 00:26:46;;;;;;;17.90;12.85;;;16.10;88.00;;;;;;5094253;28;20027;-77
2021/08/14 00:29:12;;;;;;;19.80;13.40;;;16.10;88.00;;;;;;5113361;28;20027;-81
2021/08/14 00:31:38;;;;;;;20.85;13.65;;;16.10;87.90;;;;;;5100977;28;20032;-78
2021/08/14 00:34:03;;;;;;;20.63;13.82;;;16.10;88.00;;;;;;5091179;28;20069;-78
2021/08/14 00:36:29;;;;;;;26.35;14.63;;;16.00;88.20;;;;;;5110253;28;20074;-77
2021/08/14 00:38:56;;;;;;;22.08;14.40;;;16.00;88.30;;;;;;5101846;28;20031;-79
2021/08/14 00:41:22;;;;;;;20.48;14.82;;;16.00;88.40;;;;;;5102606;28;20024;-76
2021/08/14 00:43:48;;;;;;;21.88;15.13;;;16.00;88.80;;;;;;5110361;28;20573;-76
2021/08/14 00:46:14;;;;;;;20.58;14.88;;;16.00;88.80;;;;;;5094549;28;20465;-77
2021/08/14 00:48:40;;;;;;;22.17;15.27;;;16.00;88.80;;;;;;5111814;28;20085;-77
2021/08/14 00:51:09;;;;;;;23.95;14.60;;;16.10;88.80;;;;;;5112289;28;20063;-78
2021/08/14 00:53:35;;;;;;;23.67;14.65;;;16.00;88.60;;;;;;5108826;28;20039;-77
2021/08/14 00:56:01;;;;;;;20.85;14.13;;;16.10;88.60;;;;;;5092662;28;20031;-78
2021/08/14 00:58:28;;;;;;;21.05;13.50;;;16.00;88.30;;;;;;5108406;28;20041;-81
2021/08/14 01:00:56;;;;;;;17.38;12.77;;;16.00;88.40;;;;;;5108564;28;20020;-77
2021/08/14 01:03:22;;;;;;;20.88;13.60;;;15.80;88.50;;;;;;5094054;28;20059;-79
2021/08/14 01:05:48;;;;;;;19.60;14.20;;;15.80;88.80;;;;;;5095024;28;20040;-78
2021/08/14 01:08:15;;;;;;;18.42;14.32;;;15.60;89.10;;;;;;5107858;28;20035;-78
2021/08/14 01:10:42;;;;;;;21.17;14.15;;;15.60;89.40;;;;;;5108876;28;20387;-77
2021/08/14 01:13:08;;;;;;;20.58;14.27;;;15.50;89.60;;;;;;5111287;28;20027;-77
2021/08/14 01:15:34;;;;;;;21.65;14.65;;;15.50;89.80;;;;;;5108811;28;20085;-78
2021/08/14 01:18:00;;;;;;;20.40;14.55;;;15.40;90.00;;;;;;5094383;28;20035;-77
2021/08/14 01:20:25;;;;;;;20.88;14.20;;;15.40;90.10;;;;;;5107976;28;20164;-76
2021/08/14 01:22:52;;;;;;;24.23;15.50;;;15.30;90.20;;;;;;5110780;28;20197;-77
2021/08/14 01:25:18;;;;;;;20.40;14.20;;;15.40;90.30;;;;;;5092559;28;20061;-78
2021/08/14 01:27:44;;;;;;;22.38;14.15;;;15.40;90.30;;;;;;5090463;28;20028;-78
2021/08/14 01:30:12;;;;;;;22.88;14.18;;;15.40;90.30;;;;;;5100003;28;20035;-77
2021/08/14 01:32:38;;;;;;;23.17;13.90;;;15.40;90.30;;;;;;5110126;28;20028;-78
2021/08/14 01:35:05;;;;;;;21.58;14.10;;;15.30;90.30;;;;;;5110996;28;20172;-78
2021/08/14 01:37:31;;;;;;;22.17;13.88;;;15.40;90.40;;;;;;5113082;28;20019;-76
2021/08/14 01:39:57;;;;;;;21.77;14.23;;;15.40;90.40;;;;;;5115046;28;20057;-78
2021/08/14 01:42:23;;;;;;;24.58;13.68;;;15.40;90.40;;;;;;5118415;28;20115;-77
2021/08/14 01:44:50;;;;;;;22.63;13.93;;;15.40;90.50;;;;;;5115470;28;20051;-75
2021/08/14 01:47:15;;;;;;;21.73;13.70;;;15.50;90.50;;;;;;5112173;28;20030;-76
2021/08/14 01:49:41;;;;;;;18.90;13.57;;;15.50;90.40;;;;;;5105595;28;20138;-77
2021/08/14 01:52:12;;;;;;;16.65;12.35;;;15.50;90.40;;;;;;5077763;28;20126;-76
2021/08/14 01:54:39;;;;;;;20.13;12.85;;;15.40;90.30;;;;;;5110205;28;20127;-78
2021/08/14 01:57:05;;;;;;;17.02;13.27;;;15.30;90.40;;;;;;5091320;28;20032;-77
2021/08/14 01:59:32;;;;;;;17.70;12.77;;;15.30;90.50;;;;;;5092939;28;20024;-78
2021/08/14 02:01:58;;;;;;;18.90;13.07;;;15.30;90.50;;;;;;5106348;28;20048;-78
2021/08/14 02:04:24;;;;;;;19.02;13.43;;;15.20;90.60;;;;;;5110558;28;20479;-77
2021/08/14 02:06:49;;;;;;;18.05;13.00;;;15.20;90.70;;;;;;5099148;28;20532;-76
2021/08/14 02:09:15;;;;;;;18.77;12.88;;;15.10;90.80;;;;;;5057721;28;20024;-78
2021/08/14 02:11:41;;;;;;;18.67;12.80;;;15.00;91.00;;;;;;5110649;28;20499;-78
2021/08/14 02:14:06;;;;;;;19.55;13.27;;;14.90;91.10;;;;;;5111076;28;20467;-77
2021/08/14 02:16:33;;;;;;;21.40;13.38;;;14.90;91.20;;;;;;5111782;28;20028;-76
2021/08/14 02:19:00;;;;;;;21.40;13.52;;;14.80;91.30;;;;;;5097270;28;20093;-77
2021/08/14 02:21:26;;;;;;;17.13;12.45;;;14.80;91.40;;;;;;5112256;28;20038;-77
2021/08/14 02:23:52;;;;;;;18.95;13.05;;;14.80;91.40;;;;;;5103181;28;20043;-76
2021/08/14 02:26:18;;;;;;;17.38;13.43;;;14.80;91.40;;;;;;5114611;28;20048;-76
2021/08/14 02:28:44;;;;;;;18.73;13.00;;;14.80;91.50;;;;;;5114984;28;20429;-76
2021/08/14 02:31:10;;;;;;;17.45;12.82;;;14.80;91.50;;;;;;5098563;28;20100;-76
2021/08/14 02:33:36;;;;;;;17.73;12.13;;;14.80;91.60;;;;;;5115057;28;20051;-78
2021/08/14 02:36:03;;;;;;;18.15;12.65;;;14.80;91.60;;;;;;5098362;28;20193;-77
2021/08/14 02:38:29;;;;;;;16.35;12.30;;;14.80;91.70;;;;;;5112350;28;20140;-78
2021/08/14 02:40:55;;;;;;;17.02;12.15;;;14.80;91.70;;;;;;5118980;28;20027;-76
2021/08/14 02:43:20;;;;;;;16.00;12.55;;;14.80;91.70;;;;;;5120956;28;20027;-76
2021/08/14 02:45:46;;;;;;;16.02;11.63;;;14.80;91.70;;;;;;5119571;28;20113;-78
2021/08/14 02:48:13;;;;;;;17.05;11.90;;;14.80;91.80;;;;;;5100398;28;20028;-76
2021/08/14 02:50:43;;;;;;;17.52;12.13;;;14.70;91.80;;;;;;5103016;28;20028;-78
2021/08/14 02:53:09;;;;;;;14.35;12.13;;;14.80;91.90;;;;;;5115504;28;20125;-77
2021/08/14 02:55:35;;;;;;;18.48;12.55;;;14.80;91.90;;;;;;5086711;28;20468;-78
2021/08/14 02:58:01;;;;;;;16.63;12.60;;;14.80;91.90;;;;;;5087598;28;20055;-77
2021/08/14 03:00:27;;;;;;;18.45;12.60;;;14.80;91.90;;;;;;5106709;28;20124;-75
2021/08/14 03:02:53;;;;;;;17.67;12.85;;;14.80;91.90;;;;;;5098017;28;20090;-77
2021/08/14 03:05:18;;;;;;;17.40;13.13;;;14.70;91.90;;;;;;5115528;28;20479;-78
2021/08/14 03:07:44;;;;;;;16.48;12.10;;;14.70;91.90;;;;;;5114491;28;20035;-81
2021/08/14 03:10:10;;;;;;;18.42;13.05;;;14.70;92.00;;;;;;5114256;28;20058;-77
2021/08/14 03:12:36;;;;;;;17.80;12.88;;;14.70;92.00;;;;;;5115460;28;20356;-77
2021/08/14 03:15:02;;;;;;;18.60;13.30;;;14.70;92.00;;;;;;5114770;28;20066;-79
2021/08/14 03:17:29;;;;;;;19.60;13.07;;;14.70;92.00;;;;;;5114711;28;20076;-77
2021/08/14 03:19:54;;;;;;;16.50;11.80;;;14.70;92.00;;;;;;5113479;28;20016;-77
2021/08/14 03:22:20;;;;;;;17.73;12.75;;;14.60;92.00;;;;;;5113808;28;20092;-76
2021/08/14 03:24:45;;;;;;;20.38;12.50;;;14.60;92.00;;;;;;5103374;28;20040;-79
2021/08/14 03:27:11;;;;;;;18.67;12.63;;;14.50;91.90;;;;;;5113181;28;20115;-77
2021/08/14 03:29:37;;;;;;;20.50;11.95;;;14.50;91.90;;;;;;5076959;28;20124;-78
2021/08/14 03:32:03;;;;;;;18.17;11.98;;;14.50;91.90;;;;;;5110947;28;20035;-77
2021/08/14 03:34:28;;;;;;;19.77;12.07;;;14.50;91.90;;;;;;5095264;28;20552;-77
2021/08/14 03:36:54;;;;;;;16.73;11.50;;;14.40;91.90;;;;;;5092956;28;20059;-78
2021/08/14 03:39:20;;;;;;;18.23;11.32;;;14.40;91.90;;;;;;5114788;28;20122;-78
2021/08/14 03:41:45;;;;;;;15.18;11.20;;;14.40;91.90;;;;;;5113842;28;20482;-77
2021/08/14 03:44:11;;;;;;;17.58;10.95;;;14.30;91.90;;;;;;5113253;28;20037;-77
2021/08/14 03:46:37;;;;;;;13.63;9.98;;;14.40;91.90;;;;;;5095855;28;20098;-77
2021/08/14 03:49:02;;;;;;;17.05;10.57;;;14.40;91.90;;;;;;5092708;28;20062;-77
2021/08/14 03:51:28;;;;;;;15.52;10.32;;;14.40;92.10;;;;;;5104397;28;20447;-77
2021/08/14 03:53:54;;;;;;;17.92;10.85;;;14.40;91.80;;;;;;5112629;28;20072;-80
2021/08/14 03:56:20;;;;;;;19.88;10.55;;;14.40;91.80;;;;;;5088512;28;20491;-76
2021/08/14 03:58:45;;;;;;;17.08;9.63;;;14.40;91.70;;;;;;5094024;28;20032;-77
2021/08/14 04:01:11;;;;;;;16.25;9.63;;;14.40;91.70;;;;;;5102570;28;20345;-77
2021/08/14 04:03:37;;;;;;;17.23;9.63;;;14.40;91.70;;;;;;5113014;28;20069;-77
2021/08/14 04:06:02;;;;;;;15.52;9.32;;;14.40;91.70;;;;;;5092386;28;20036;-77
2021/08/14 04:08:28;;;;;;;16.45;9.50;;;14.30;91.60;;;;;;5092670;28;20028;-78
2021/08/14 04:10:54;;;;;;;17.33;9.50;;;14.30;91.60;;;;;;5109383;28;20024;-81
2021/08/14 04:13:20;;;;;;;15.00;9.02;;;14.30;91.70;;;;;;5114438;28;20077;-78
2021/08/14 04:15:46;;;;;;;18.02;9.38;;;14.30;91.60;;;;;;5099677;28;20468;-77
2021/08/14 04:18:11;;;;;;;11.65;8.27;;;14.30;91.50;;;;;;5090079;28;20031;-78
2021/08/14 04:20:37;;;;;;;16.02;9.00;;;14.30;91.50;;;;;;5112493;28;20028;-78
2021/08/14 04:23:04;;;;;;;16.48;9.50;;;14.30;91.50;;;;;;5093805;28;20130;-79
2021/08/14 04:25:29;;;;;;;15.13;8.45;;;14.30;91.50;;;;;;5113259;28;20027;-77
2021/08/14 04:27:55;;;;;;;15.05;8.40;;;14.30;91.50;;;;;;5113132;28;20118;-81
2021/08/14 04:30:21;;;;;;;14.02;8.25;;;14.30;91.50;;;;;;5107184;28;20058;-76
2021/08/14 04:32:47;;;;;;;15.43;8.85;;;14.40;91.40;;;;;;5095086;28;20028;-77
2021/08/14 04:35:14;;;;;;;12.98;9.02;;;14.40;91.30;;;;;;5111808;28;20043;-77
2021/08/14 04:37:41;;;;;;;16.20;8.10;;;14.40;91.30;;;;;;5112311;28;20031;-76
2021/08/14 04:40:10;;;;;;;13.60;8.38;;;14.40;91.20;;;;;;5109030;28;20034;-76
2021/08/14 04:42:36;;;;;;;14.75;7.78;;;14.50;91.20;;;;;;5113086;28;20031;-77
2021/08/14 04:45:02;;;;;;;14.52;8.40;;;14.50;91.10;;;;;;5111103;28;20027;-83
2021/08/14 04:47:28;;;;;;;14.38;7.78;;;14.60;91.00;;;;;;5094895;28;20056;-76
2021/08/14 04:49:53;;;;;;;16.42;8.30;;;14.70;90.90;;;;;;5109830;28;20074;-77
2021/08/14 04:52:19;;;;;;;18.17;7.63;;;14.80;90.80;;;;;;5077038;28;20035;-77
2021/08/14 04:54:44;;;;;;;15.23;7.90;;;15.50;90.40;;;;;;5108887;28;20028;-76
2021/08/14 04:57:10;;;;;;;13.27;7.03;;;16.50;88.20;;;;;;5111661;28;20073;-76
2021/08/14 04:59:36;;;;;;;15.00;6.60;;;17.30;85.10;;;;;;5108658;28;20028;-79
2021/08/14 05:02:03;;;;;;;13.57;6.55;;;18.10;81.60;;;;;;5107945;28;20483;-81
2021/08/14 05:04:32;;;;;;;13.02;6.18;;;18.70;78.80;;;;;;5094373;28;20058;-77
2021/08/14 05:07:00;;;;;;;11.00;5.75;;;19.40;76.60;;;;;;5111546;28;20365;-78
2021/08/14 05:09:26;;;;;;;12.65;6.00;;;19.90;74.60;;;;;;5111150;28;20023;-77
2021/08/14 05:11:51;;;;;;;14.77;5.40;;;20.50;72.60;;;;;;5111714;28;20019;-76
2021/08/14 05:14:17;;;;;;;12.45;5.25;;;21.00;70.90;;;;;;5093246;28;20042;-79
2021/08/14 05:16:43;;;;;;;10.63;5.07;;;21.50;69.10;;;;;;5110266;28;20506;-78
2021/08/14 05:19:08;;;;;;;11.82;4.95;;;22.00;67.80;;;;;;5110536;28;20035;-77
2021/08/14 05:21:34;;;;;;;13.52;4.38;;;22.30;66.20;;;;;;5109957;28;20027;-77
2021/08/14 05:24:01;;;;;;;11.82;4.65;;;22.70;65.30;;;;;;5108844;28;20119;-79
2021/08/14 05:26:27;;;;;;;10.68;4.30;;;23.10;64.00;;;;;;5101690;28;20080;-77
2021/08/14 05:28:52;;;;;;;12.65;4.30;;;23.50;62.60;;;;;;5098451;28;20028;-78
2021/08/14 05:31:18;;;;;;;7.80;3.80;;;23.90;61.40;;;;;;5106971;28;20395;-80
2021/08/14 05:33:44;;;;;;;12.75;4.63;;;24.40;60.20;;;;;;5103729;28;20437;-78
2021/08/14 05:36:09;;;;;;;9.10;3.85;;;24.70;58.80;;;;;;5108877;28;20051;-79
2021/08/14 05:38:36;;;;;;;7.72;3.10;;;25.10;57.70;;;;;;5109174;28;20028;-79
2021/08/14 05:41:02;;;;;;;7.30;3.83;;;25.50;56.60;;;;;;5101802;28;20360;-78
2021/08/14 05:43:28;;;;;;;11.52;3.60;;;25.80;55.30;;;;;;5108812;28;20062;-78
2021/08/14 05:45:54;;;;;;;12.10;3.85;;;26.10;54.30;;;;;;5110649;28;20063;-76
2021/08/14 05:48:19;;;;;;;8.32;3.53;;;26.40;53.10;;;;;;5109291;28;20043;-76
2021/08/14 05:50:46;;;;;;;7.57;2.97;;;26.60;52.70;;;;;;5107791;28;20451;-76
2021/08/14 05:53:12;;;;;;;7.15;3.40;;;26.90;51.40;;;;;;5108357;28;20455;-78
2021/08/14 05:55:38;;;;;;;9.18;3.67;;;27.10;51.00;;;;;;5101412;28;20025;-77
2021/08/14 05:58:04;;;;;;;11.32;3.42;;;27.30;50.70;;;;;;5073161;28;20031;-76
2021/08/14 06:00:29;;;;;;;7.70;3.40;;;27.50;49.90;;;;;;5108316;28;20053;-77
2021/08/14 06:02:55;;;;;;;9.93;3.33;;;27.70;49.30;;;;;;5109319;28;20059;-77
2021/08/14 06:05:24;;;;;;;7.05;3.03;;;28.00;48.70;;;;;;5100023;28;20471;-76
2021/08/14 06:07:50;;;;;;;8.50;3.05;;;28.20;48.50;;;;;;5075474;28;20495;-77
2021/08/14 06:10:17;;;;;;;12.15;3.20;;;28.40;47.80;;;;;;5109888;28;20031;-78
2021/08/14 06:12:43;;;;;;;4.63;2.58;;;28.60;47.40;;;;;;5107587;28;20071;-77
2021/08/14 06:15:09;;;;;;;7.55;3.20;;;28.80;47.40;;;;;;5096144;28;20456;-82
2021/08/14 06:17:35;;;;;;;10.80;3.35;;;29.00;46.40;;;;;;5097085;28;20162;-78
2021/08/14 06:20:01;;;;;;;10.80;3.17;;;29.20;45.70;;;;;;5103225;28;20098;-79
2021/08/14 06:22:26;;;;;;;7.72;3.50;;;29.30;45.90;;;;;;5102824;28;20031;-80
2021/08/14 06:24:53;;;;;;;8.90;3.63;;;29.40;45.60;;;;;;5088004;28;20024;-78
2021/08/14 06:27:20;;;;;;;8.70;3.22;;;29.60;44.90;;;;;;5101589;28;20032;-79
2021/08/14 06:29:46;;;;;;;10.32;3.10;;;29.60;44.90;;;;;;5102976;28;20028;-78
2021/08/14 06:32:11;;;;;;;8.40;3.00;;;29.70;44.60;;;;;;5107706;28;20023;-78
2021/08/14 06:34:38;;;;;;;9.25;3.03;;;29.90;44.70;;;;;;5105039;28;20027;-77
2021/08/14 06:37:04;;;;;;;9.25;2.42;;;29.70;44.30;;;;;;5098260;28;20031;-78
2021/08/14 06:39:30;;;;;;;9.82;2.90;;;29.70;44.40;;;;;;5104354;28;20059;-78
2021/08/14 06:41:55;;;;;;;7.25;2.90;;;29.90;44.10;;;;;;5099939;28;20425;-77
2021/08/14 06:44:21;;;;;;;7.43;2.85;;;30.00;44.20;;;;;;5097617;28;20035;-78
2021/08/14 06:46:47;;;;;;;8.02;3.08;;;30.30;43.70;;;;;;5101623;28;20035;-77
2021/08/14 06:49:12;;;;;;;7.68;3.00;;;30.60;43.50;;;;;;5109648;28;20028;-77
2021/08/14 06:51:39;;;;;;;9.40;3.13;;;30.70;42.90;;;;;;5085911;28;20517;-78
2021/08/14 06:54:04;;;;;;;8.82;2.70;;;30.80;42.50;;;;;;5099456;28;20027;-75
2021/08/14 06:56:30;;;;;;;9.00;3.42;;;30.80;42.60;;;;;;5103124;28;20039;-78
2021/08/14 06:58:56;;;;;;;7.57;3.50;;;31.00;41.90;;;;;;5103726;28;20992;-81
2021/08/14 07:01:22;;;;;;;7.90;3.53;;;31.10;41.80;;;;;;5095621;28;20055;-82
2021/08/14 07:03:48;;;;;;;8.80;4.45;;;31.20;41.40;;;;;;5101625;28;20056;-78
2021/08/14 07:06:24;;;;;;;10.07;4.82;;;31.20;41.90;;;;;;5108217;28;22056;-80
2021/08/14 07:08:50;;;;;;;10.07;3.83;;;31.30;41.60;;;;;;5097365;28;20039;-79
2021/08/14 07:11:18;;;;;;;7.18;3.50;;;31.20;41.60;;;;;;5102992;28;20065;-80
2021/08/14 07:13:43;;;;;;;6.72;3.65;;;31.10;41.40;;;;;;5099847;28;20058;-79
2021/08/14 07:16:09;;;;;;;10.70;3.60;;;31.10;41.80;;;;;;5102474;28;20658;-78
2021/08/14 07:18:35;;;;;;;11.10;3.65;;;31.10;42.20;;;;;;5103383;28;20040;-82
2021/08/14 07:21:01;;;;;;;10.98;3.45;;;31.20;41.70;;;;;;5105629;28;20028;-78
2021/08/14 07:23:27;;;;;;;6.68;3.47;;;31.40;41.60;;;;;;5102454;28;20063;-80
2021/08/14 07:25:53;;;;;;;10.15;3.35;;;31.70;41.20;;;;;;5088438;28;20031;-79
2021/08/14 07:28:19;;;;;;;8.20;3.38;;;31.70;40.70;;;;;;5101796;28;20481;-78
2021/08/14 07:30:47;;;;;;;9.18;3.30;;;31.20;41.40;;;;;;5101639;28;20069;-76
2021/08/14 07:33:14;;;;;;;6.35;3.03;;;31.00;41.80;;;;;;5114805;28;20038;-79
2021/08/14 07:35:40;;;;;;;8.88;3.42;;;31.10;41.90;;;;;;5116948;27;20032;-77
2021/08/14 07:38:05;;;;;;;8.38;3.22;;;30.80;40.90;;;;;;5091347;28;20024;-78
2021/08/14 07:40:31;;;;;;;8.95;2.97;;;30.40;42.40;;;;;;5095686;28;20502;-77
2021/08/14 07:43:01;;;;;;;8.40;2.67;;;30.30;43.30;;;;;;5093429;28;20420;-78
2021/08/14 07:45:26;;;;;;;6.45;2.65;;;30.60;42.80;;;;;;5099066;28;20038;-83
2021/08/14 07:47:53;;;;;;;6.72;2.40;;;31.10;42.10;;;;;;5117804;28;20028;-79
2021/08/14 07:50:24;;;;;;;6.30;2.67;;;31.40;41.60;;;;;;5096152;28;20471;-79
2021/08/14 07:52:51;;;;;;;9.18;3.22;;;31.70;40.80;;;;;;5114684;28;20027;-77
2021/08/14 07:55:18;;;;;;;6.95;2.95;;;31.60;40.70;;;;;;5110604;28;20127;-78
2021/08/14 07:57:44;;;;;;;7.85;2.92;;;31.80;40.80;;;;;;5106403;28;20172;-78
2021/08/14 08:00:13;;;;;;;7.30;2.78;;;31.90;40.40;;;;;;5120836;28;20479;-77
2021/08/14 08:02:40;;;;;;;7.32;3.10;;;32.00;40.30;;;;;;5123465;28;20040;-79
2021/08/14 08:05:07;;;;;;;11.00;3.13;;;32.20;39.80;;;;;;5120569;28;20028;-76
2021/08/14 08:07:33;;;;;;;11.27;2.63;;;31.80;39.90;;;;;;5120114;28;20016;-75
2021/08/14 08:09:59;;;;;;;10.20;2.88;;;31.70;40.20;;;;;;5101699;28;20032;-75
2021/08/14 08:12:24;;;;;;;8.13;2.80;;;31.60;39.90;;;;;;5118877;28;20055;-76
2021/08/14 08:14:50;;;;;;;6.32;2.15;;;31.60;39.80;;;;;;5118290;28;20031;-77
2021/08/14 08:17:16;;;;;;;8.32;2.58;;;31.70;40.50;;;;;;5118470;28;20019;-77
2021/08/14 08:19:42;;;;;;;6.80;1.85;;;31.90;39.70;;;;;;5119229;28;20378;-75
2021/08/14 08:22:08;;;;;;;6.22;1.85;;;32.20;39.30;;;;;;5119594;28;20054;-74
2021/08/14 08:24:34;;;;;;;4.35;1.80;;;32.40;38.80;;;;;;5119363;28;20074;-76
2021/08/14 08:26:59;;;;;;;9.65;2.20;;;32.70;38.20;;;;;;5119655;28;20035;-75
2021/08/14 08:29:25;;;;;;;5.20;1.70;;;33.00;37.60;;;;;;5097500;28;20107;-76
2021/08/14 08:31:50;;;;;;;6.35;2.13;;;32.90;37.70;;;;;;5112856;28;20181;-75
2021/08/14 08:34:16;;;;;;;5.53;1.80;;;33.10;37.80;;;;;;5113912;28;20055;-76
2021/08/14 08:36:42;;;;;;;7.07;2.20;;;33.20;37.00;;;;;;5114919;28;20028;-77
2021/08/14 08:39:08;;;;;;;5.68;1.52;;;33.20;36.70;;;;;;5113471;28;20497;-75
2021/08/14 08:41:34;;;;;;;3.33;1.42;;;33.20;36.70;;;;;;5113184;27;20028;-76
2021/08/14 08:43:59;;;;;;;6.35;1.70;;;33.50;36.90;;;;;;5108983;28;20028;-78
2021/08/14 08:46:27;;;;;;;6.03;1.58;;;33.80;36.00;;;;;;5093721;28;20046;-76
2021/08/14 08:48:53;;;;;;;9.05;1.88;;;33.80;35.80;;;;;;5095110;28;20483;-77
2021/08/14 08:51:30;;;;;;;4.57;1.70;;;33.50;35.90;;;;;;5112487;28;20038;-76
2021/08/14 08:53:56;;;;;;;5.50;1.60;;;33.50;35.40;;;;;;5114143;28;20490;-75
2021/08/14 08:56:22;;;;;;;5.10;1.52;;;33.40;35.90;;;;;;5113482;28;20076;-74
2021/08/14 08:58:48;;;;;;;4.35;1.23;;;33.50;36.10;;;;;;5112427;28;20032;-75
2021/08/14 09:01:13;;;;;;;3.13;1.38;;;33.70;35.90;;;;;;5095033;28;20087;-73
2021/08/14 09:03:39;;;;;;;4.93;1.40;;;34.00;35.70;;;;;;5109443;28;20058;-76
2021/08/14 09:06:05;;;;;;;4.43;1.75;;;34.10;35.50;;;;;;5111182;28;20041;-75
2021/08/14 09:08:30;;;;;;;5.10;1.70;;;34.10;35.70;;;;;;5112240;28;20581;-77
2021/08/14 09:11:10;;;;;;;4.93;1.88;;;34.10;36.20;;;;;;5111756;28;20031;-76
2021/08/14 09:13:36;;;;;;;3.33;1.40;;;34.20;35.90;;;;;;5112398;28;20031;-80
2021/08/14 09:16:19;;;;;;;5.82;1.92;;;34.40;35.70;;;;;;5113087;28;20032;-75
2021/08/14 09:19:05;;;;;;;8.73;1.90;;;34.80;35.40;;;;;;5112641;28;20104;-74
2021/08/14 09:21:39;;;;;;;6.70;1.77;;;34.80;35.50;;;;;;5112061;28;20046;-74
2021/08/14 09:24:07;;;;;;;6.93;1.77;;;34.90;35.40;;;;;;5112485;28;20043;-75
2021/08/14 09:26:45;;;;;;;4.30;1.30;;;34.70;35.10;;;;;;5111931;28;20055;-74
2021/08/14 09:29:10;;;;;;;8.45;1.73;;;34.60;35.40;;;;;;5112998;28;20122;-77
2021/08/14 09:31:51;;;;;;;8.32;2.30;;;34.60;35.30;;;;;;5111277;28;20551;-81
2021/08/14 09:34:19;;;;;;;7.43;1.70;;;34.30;35.10;;;;;;5113613;28;20057;-75
2021/08/14 09:37:01;;;;;;;5.78;1.88;;;33.90;35.90;;;;;;5097802;28;20120;-75
2021/08/14 09:39:28;;;;;;;5.70;1.63;;;33.90;36.20;;;;;;5105603;28;20028;-77
2021/08/14 09:42:08;;;;;;;5.40;1.52;;;34.10;36.10;;;;;;5114679;28;20067;-78
2021/08/14 09:44:35;;;;;;;3.78;1.75;;;34.40;36.20;;;;;;5097425;28;20057;-76
2021/08/14 09:47:08;;;;;;;6.13;1.58;;;34.60;36.00;;;;;;5116133;28;20031;-74
2021/08/14 09:49:54;;;;;;;4.07;1.23;;;34.60;35.80;;;;;;5115573;28;20027;-76
2021/08/14 09:52:24;;;;;;;6.13;1.60;;;34.80;35.80;;;;;;5114522;28;20078;-76
2021/08/14 09:54:52;;;;;;;6.78;1.50;;;34.90;35.60;;;;;;5114085;28;20055;-76
2021/08/14 09:57:19;;;;;;;4.78;1.67;;;34.90;35.70;;;;;;5112969;28;20122;-76
2021/08/14 09:59:46;;;;;;;4.70;1.75;;;34.90;35.20;;;;;;5115482;28;20034;-78
2021/08/14 10:02:26;;;;;;;4.72;1.50;;;34.90;35.40;;;;;;5118200;28;20494;-77
2021/08/14 10:04:53;;;;;;;4.78;1.83;;;34.90;35.50;;;;;;5116910;28;20389;-77
2021/08/14 10:07:19;;;;;;;5.22;1.42;;;35.00;35.20;;;;;;5115559;28;20024;-76
2021/08/14 10:09:46;;;;;;;4.53;1.20;;;35.10;35.50;;;;;;5117222;28;20402;-76
2021/08/14 10:12:15;;;;;;;3.67;1.33;;;35.30;35.00;;;;;;5116828;28;20105;-76
2021/08/14 10:14:43;;;;;;;5.07;1.73;;;35.60;34.40;;;;;;5116934;28;20035;-81
2021/08/14 10:17:09;;;;;;;3.97;1.65;;;35.60;34.50;;;;;;5117148;28;20027;-76
2021/08/14 10:19:36;;;;;;;5.85;1.83;;;35.40;34.70;;;;;;5114541;28;20061;-76
2021/08/14 10:22:07;;;;;;;4.40;1.33;;;35.00;34.80;;;;;;5111944;28;20632;-76
2021/08/14 10:24:41;;;;;;;2.67;1.10;;;34.80;35.30;;;;;;5107508;28;20027;-74
2021/08/14 10:27:09;;;;;;;3.30;1.45;;;34.80;35.30;;;;;;5113263;28;20020;-76
2021/08/14 10:29:54;;;;;;;3.55;1.25;;;34.90;35.30;;;;;;5111883;28;20027;-76
2021/08/14 10:32:32;;;;;;;4.78;1.33;;;34.90;35.20;;;;;;5111235;28;20031;-77
2021/08/14 10:35:20;;;;;;;5.95;1.20;;;35.00;34.80;;;;;;5093480;28;20054;-75
2021/08/14 10:37:47;;;;;;;5.13;1.30;;;35.10;34.80;;;;;;5091735;28;20115;-83
2021/08/14 10:40:15;;;;;;;3.17;1.15;;;34.90;34.80;;;;;;5094936;28;20048;-76
2021/08/14 10:43:01;;;;;;;4.60;1.25;;;34.70;35.50;;;;;;5105047;28;20054;-79
2021/08/14 10:45:35;;;;;;;5.20;1.77;;;34.70;35.80;;;;;;5108609;28;20082;-75
2021/08/14 10:48:04;;;;;;;3.40;1.65;;;34.70;35.90;;;;;;5116300;27;20055;-78
2021/08/14 10:50:33;;;;;;;3.25;1.38;;;34.70;35.70;;;;;;5115265;28;20572;-75
2021/08/14 10:53:10;;;;;;;4.55;1.55;;;34.80;35.20;;;;;;5113273;28;20145;-75
2021/08/14 10:55:37;;;;;;;3.50;1.23;;;34.70;35.60;;;;;;5115553;28;20030;-73
2021/08/14 10:58:23;;;;;;;4.28;1.33;;;34.60;35.70;;;;;;5116709;28;20094;-76
2021/08/14 11:00:51;;;;;;;3.42;1.20;;;34.70;35.90;;;;;;5116949;28;20110;-82
2021/08/14 11:03:33;;;;;;;5.82;1.52;;;34.70;35.70;;;;;;5115949;28;20055;-77
2021/08/14 11:06:18;;;;;;;;;;;34.40;36.00;;;;;;5117858;28;20028;-76
2021/08/14 11:08:43;;;;;;;3.75;1.17;;;34.30;36.30;;;;;;5115783;28;19915;-75
2021/08/14 11:11:36;;;;;;;5.15;2.17;;;34.30;36.20;;;;;;5113542;28;20016;-75
2021/08/14 11:14:12;;;;;;;4.85;1.50;;;34.30;36.50;;;;;;5114740;27;20031;-73
2021/08/14 11:16:59;;;;;;;5.82;1.65;;;34.30;36.00;;;;;;5113876;28;20027;-77
2021/08/14 11:19:45;;;;;;;4.70;1.30;;;34.30;36.10;;;;;;5113989;27;20038;-77
2021/08/14 11:22:29;;;;;;;3.97;1.45;;;34.30;36.50;;;;;;5103345;28;20346;-76
2021/08/14 11:24:57;;;;;;;5.55;1.85;;;34.20;36.20;;;;;;5113071;28;20035;-75
2021/08/14 11:27:34;;;;;;;7.57;1.98;;;34.10;36.10;;;;;;5115233;28;20031;-76
2021/08/14 11:30:05;;;;;;;6.22;1.58;;;33.90;36.40;;;;;;5114300;28;20034;-77
2021/08/14 11:32:31;;;;;;;4.90;1.50;;;33.80;37.10;;;;;;5114289;28;20032;-75
2021/08/14 11:34:59;;;;;;;4.43;2.17;;;33.80;37.10;;;;;;5114664;28;20062;-74
2021/08/14 11:37:26;;;;;;;5.05;1.73;;;33.90;36.80;;;;;;5115042;28;20019;-76
2021/08/14 11:40:03;;;;;;;4.20;1.70;;;33.80;37.30;;;;;;5113486;28;20047;-81
2021/08/14 11:42:31;;;;;;;5.32;1.70;;;33.70;37.00;;;;;;5116434;28;20051;-75
2021/08/14 11:45:00;;;;;;;4.75;1.63;;;33.70;37.30;;;;;;5113808;28;20507;-76
2021/08/14 11:47:38;;;;;;;4.63;1.63;;;33.70;37.50;;;;;;5112022;28;20158;-76
2021/08/14 11:50:07;;;;;;;6.85;1.90;;;33.70;37.70;;;;;;5094255;28;20016;-75
2021/08/14 11:52:33;;;;;;;6.85;2.00;;;33.70;37.30;;;;;;5095162;28;20035;-76
2021/08/14 11:55:13;;;;;;;4.53;1.90;;;33.60;37.60;;;;;;5097507;28;20024;-79
2021/08/14 11:57:42;;;;;;;4.65;2.03;;;33.40;37.70;;;;;;5110446;28;20027;-76
2021/08/14 12:00:17;;;;;;;4.88;1.98;;;33.30;38.60;;;;;;5101118;28;20376;-76
2021/08/14 12:02:43;;;;;;;6.93;2.00;;;33.20;38.60;;;;;;5108470;28;20467;-76
2021/08/14 12:05:09;;;;;;;6.38;2.00;;;33.30;38.00;;;;;;5096548;28;20055;-78
2021/08/14 12:07:35;;;;;;;6.18;1.80;;;33.20;38.40;;;;;;5113094;28;20073;-77
2021/08/14 12:10:00;;;;;;;5.78;2.10;;;33.20;38.10;;;;;;5089247;28;20078;-76
2021/08/14 12:12:28;;;;;;;6.90;2.08;;;33.10;38.40;;;;;;5096446;28;20032;-76
2021/08/14 12:14:54;;;;;;;6.25;1.83;;;33.00;38.90;;;;;;5094587;28;20026;-77
2021/08/14 12:17:19;;;;;;;5.95;2.40;;;33.10;39.50;;;;;;5107564;28;20027;-77
2021/08/14 12:19:48;;;;;;;7.35;2.30;;;33.10;38.90;;;;;;5091310;28;20047;-75
2021/08/14 12:22:15;;;;;;;7.70;2.30;;;33.00;38.90;;;;;;5090820;28;20028;-77
2021/08/14 12:24:44;;;;;;;7.25;2.55;;;32.70;39.00;;;;;;5091667;28;20039;-77
2021/08/14 12:27:25;;;;;;;7.97;2.50;;;32.70;39.30;;;;;;5102577;28;20383;-76
2021/08/14 12:29:52;;;;;;;6.32;1.95;;;32.70;39.40;;;;;;5105410;28;20377;-78
2021/08/14 12:32:17;;;;;;;5.03;2.17;;;32.70;39.70;;;;;;5110039;28;20153;-75
2021/08/14 12:34:44;;;;;;;5.90;2.00;;;32.80;39.50;;;;;;5112438;28;20106;-77
2021/08/14 12:37:11;;;;;;;7.95;2.30;;;32.90;39.30;;;;;;5110611;28;20057;-76
2021/08/14 12:39:56;;;;;;;6.60;1.98;;;32.90;39.40;;;;;;5112139;28;20544;-77